Tiempo atmosférico en la estación meteorológica de Bustillo del Páramo, León (850 m.)



Fecha
DESCASC
Temp. máxima en grados centígrados (hora)
DESCASC
Temp. mínima en grados centígrados (hora)
DESCASC
Temp. media en grados centígrados
DESCASC
Racha de viento máxima en m/sg (hora)
DESCASC
Velocidad máxima media en intervalos de 10 minutos(hora)
DESCASC
Precipitaciones diarias en mm
DESCASC
Precipitaciones de 00:00 a 06:00 en mm
DESCASC
Precipitaciones de 06:00 a 12:00 en mm
DESCASC
Precipitaciones de 12:00 a 18:00 en mm
DESCASC
Precipitaciones de 18:00 a 24:00 en mm
DESCASC
03-12-2020 7.5 (16:50) -3.8 (07:50) 1.9 14.17 (23:10) 9.17 (23:10) 0.4 0 0 0 0.4
02-12-2020 7.7 (15:20) 0 (23:50) 3.8 7.78 (08:30) 5.28 (08:40) 0 0 0 0 0
01-12-2020 15.2 (14:50) -1.1 (08:20) 7 7.22 (18:30) 4.17 (18:30) 0 0 0 0 0
30-11-2020 13.1 (17:00) 1.4 (00:00) 7.3 3.89 (22:20) 3.06 (20:30) 0 0 0 0 0
29-11-2020 12 (14:30) 3.1 (00:00) 7.5 6.94 (14:10) 3.89 (10:30) 0 0 0 0 0
28-11-2020 12.3 (16:10) 1.8 (00:00) 7.1 5.28 (12:40) 3.61 (17:10) 0 0 0 0 0
27-11-2020 12.7 (16:00) 4.2 (00:00) 8.4 8.33 (13:10) 5.56 (13:20) 0 0 0 0 0
26-11-2020 10 (12:30) 6.2 (00:00) 8.1 9.72 (10:50) 6.94 (10:30) 1.4 0.4 0 0 1
25-11-2020 7.1 (23:20) 3.7 (00:00) 5.4 7.22 (21:50) 4.44 (23:59) 18.4 0 7.6 9.4 1.4
24-11-2020 11.1 (15:20) -0.9 (-00:0) 5.1 4.44 (15:40) 2.5 (15:40) 0 0 0 0 0
23-11-2020 15.5 (15:50) 0.2 (00:00) 7.9 2.78 (02:00) 2.22 (01:50) 0 0 0 0 0
22-11-2020 16.2 (16:00) -0.5 (-00:0) 7.9 3.33 (01:00) 2.22 (01:00) 0 0 0 0 0
21-11-2020 18.2 (15:40) 1.7 (00:00) 10 5 (09:20) 3.33 (09:30) 0 0 0 0 0
20-11-2020 11.9 (15:40) 2.9 (00:00) 7.4 3.61 (12:50) 2.5 (20:20) 0 0 0 0 0
19-11-2020 17.7 (15:40) 4.6 (00:00) 11.2 6.11 (22:00) 4.17 (22:10) 0 0 0 0 0
18-11-2020 14.7 (16:10) 1.8 (00:00) 8.2 3.89 (22:40) 2.5 (22:00) 0 0 0 0 0
17-11-2020 16.4 (16:00) 1.9 (00:00) 9.1 3.89 (15:10) 3.06 (17:50) 0 0 0 0 0
16-11-2020 13.3 (15:40) 4 (00:00) 8.7 7.5 (05:00) 5 (01:40) 0 0 0 0 0
15-11-2020 16 (12:50) 9.1 (00:00) 12.6 13.06 (12:50) 9.17 (12:50) 1 0 0 0.8 0.2
14-11-2020 11.2 (15:50) 6 (00:00) 8.6 6.11 (23:30) 4.72 (23:40) 0.2 0 0.2 0 0
13-11-2020 12.3 (16:20) 4.7 (00:00) 8.5 4.44 (16:30) 3.06 (16:30) 0 0 0 0 0
12-11-2020 13.8 (15:10) 6.5 (00:00) 10.2 4.72 (16:00) 2.78 (16:00) 0 0 0 0 0
11-11-2020 10.9 (16:10) 6.6 (00:00) 8.7 9.17 (13:40) 5.83 (13:40) 0 0 0 0 0
10-11-2020 9 (16:50) 2.2 (00:00) 5.6 4.72 (11:20) 3.06 (11:20) 0.2 0.2 0 0 0
09-11-2020 13.8 (13:50) 6.7 (00:00) 10.3 6.94 (02:40) 5 (02:30) 2.8 0 0 2.8 0
08-11-2020 10.9 (15:30) 8.9 (00:00) 9.9 8.33 (07:10) 5.83 (11:20) 4.4 0.2 3.2 1 0
07-11-2020 14.3 (13:30) 9 (00:00) 11.7 11.94 (15:20) 8.61 (15:20) 6.4 6.4 0 0 0
06-11-2020 13.6 (19:20) 8.5 (00:00) 11.1 13.06 (19:00) 8.89 (19:10) 4.8 0.8 0.2 0.6 3.2
05-11-2020 12.5 (14:10) 5.7 (00:00) 9.1 14.17 (14:30) 9.44 (10:20) 3.4 0.2 0 0 3.2

Gráficas

Temp. máximas Temp. mínimas Temp. medias Precipitaciones Rachas de viento máximas Velocidades máximas media en intervalos de 10 minutos

Datos horarios

Fecha y hora oficial Temperatura (ºC) Velocidad del viento (km/h) Dirección del viento Racha (km/h) Dirección de racha Precipitación (mm) Presión (hPa) Tendencia (hPa) Humedad (%)
2020-12-04 23:00:00 -0.6 10 Oeste 24 Oeste 0 -- -- 89
2020-12-04 22:00:00 -0.1 3 Oeste 18 Oeste 0 -- -- 86
2020-12-04 21:00:00 -0.1 11 Noroeste 20 Oeste 0 -- -- 88
2020-12-04 20:00:00 -0.4 9 Oeste 26 Oeste 0 -- -- 86
2020-12-04 19:00:00 0.7 16 Oeste 26 Oeste 0 -- -- 82
2020-12-04 18:00:00 0.9 17 Oeste 30 Oeste 0 -- -- 79
2020-12-04 17:00:00 1.6 15 Oeste 33 Noroeste 0 -- -- 79
2020-12-04 16:00:00 2 24 Oeste 49 Oeste 0 -- -- 75
2020-12-04 15:00:00 3.4 25 Oeste 44 Oeste 0 -- -- 72
2020-12-04 14:00:00 2.8 26 Oeste 40 Oeste 0 -- -- 70
2020-12-04 13:00:00 4.6 31 Oeste 46 Oeste 0 -- -- 64
2020-12-04 12:00:00 3.6 30 Oeste 45 Oeste 0 -- -- 70
2020-12-04 11:00:00 3.1 30 Oeste 44 Oeste 0 -- -- 76
2020-12-04 10:00:00 1.3 19 Oeste 38 Oeste 0 -- -- 81
2020-12-04 09:00:00 0.2 25 Oeste 42 Noroeste 0 -- -- 85
2020-12-04 08:00:00 0 26 Oeste 42 Oeste 0 -- -- 88
2020-12-04 07:00:00 0.1 21 Oeste 33 Oeste 0 -- -- 86
2020-12-04 06:00:00 0.6 17 Oeste 28 Oeste 0 -- -- 86
2020-12-04 05:00:00 0.7 17 Oeste 37 Oeste 0 -- -- 87
2020-12-04 04:00:00 1.2 18 Oeste 45 Oeste 0 -- -- 83
2020-12-04 03:00:00 1.7 25 Oeste 59 Sudoeste 0 -- -- 86
2020-12-04 02:00:00 2.9 31 Oeste 54 Oeste 0 -- -- 82
2020-12-04 01:00:00 3.8 21 Oeste 46 Oeste 0.2 -- -- 86
2020-12-04 00:00:00 5.1 26 Oeste 51 Oeste 0.2 -- -- 87
2020-12-03 23:00:00 6.1 26 Oeste 45 Sudoeste 0 -- -- 86
2020-12-03 22:00:00 5.2 14 Sudoeste 30 Sudoeste 0.2 -- -- 89
2020-12-03 21:00:00 5.2 21 Sudoeste 39 Sudoeste 0 -- -- 88
2020-12-03 20:00:00 5.2 22 Sudoeste 35 Sudoeste 0 -- -- 87
2020-12-03 19:00:00 5.3 14 Sudoeste 26 Sudoeste 0 -- -- 85
2020-12-03 18:00:00 6.4 8 Sudoeste 22 Sudoeste 0 -- -- 75
2020-12-03 17:00:00 7.3 16 Sudoeste 44 Oeste 0 -- -- 68
2020-12-03 16:00:00 7 21 Oeste 48 Oeste 0 -- -- 70
2020-12-03 15:00:00 6.4 20 Sudoeste 36 Oeste 0 -- -- 70
2020-12-03 14:00:00 5 12 Sudoeste 19 Sudoeste 0 -- -- 72
2020-12-03 13:00:00 2.8 9 Sur 14 Sur 0 -- -- 83
2020-12-03 12:00:00 3.2 8 Sur 13 Sudeste 0 -- -- 82
2020-12-03 11:00:00 1.8 0 Calma 6 Sudeste 0 -- -- 89
2020-12-03 10:00:00 -1.1 2 Este 4 Este 0 -- -- 94
2020-12-03 09:00:00 -3.1 2 Nordeste 4 Este 0 -- -- 95
2020-12-03 08:00:00 -3.7 3 Norte 6 Norte 0 -- -- 94
2020-12-03 07:00:00 -3.5 3 Noroeste 4 Noroeste 0 -- -- 92
2020-12-03 06:00:00 -3 3 Nordeste 8 Norte 0 -- -- 93
2020-12-03 05:00:00 -2.7 4 Norte 10 Norte 0 -- -- 92
2020-12-03 04:00:00 -2.6 2 Noroeste 6 Nordeste 0 -- -- 91
2020-12-03 03:00:00 -2.5 4 Norte 6 Norte 0 -- -- 90
2020-12-03 02:00:00 -1.5 4 Noroeste 7 Noroeste 0 -- -- 88
2020-12-03 01:00:00 -0.8 6 Norte 10 Noroeste 0 -- -- 88
2020-12-03 00:00:00 0 0 Calma 6 Noroeste 0 -- -- 88
2020-12-02 23:00:00 0.7 5 Noroeste 9 Noroeste 0 -- -- 84
2020-12-02 22:00:00 2.3 0 Calma 4 Noroeste 0 -- -- 80
2020-12-02 21:00:00 3 0 Calma 5 Sudeste 0 -- -- 78
2020-12-02 20:00:00 3.6 4 Noroeste 12 Noroeste 0 -- -- 72
2020-12-02 19:00:00 4.3 5 Oeste 14 Noroeste 0 -- -- 72
2020-12-02 18:00:00 5.4 9 Norte 26 Norte 0 -- -- 65
2020-12-02 17:00:00 6.9 16 Norte 25 Norte 0 -- -- 56
2020-12-02 16:00:00 7.5 13 Norte 26 Norte 0 -- -- 50
2020-12-02 15:00:00 7.2 18 Norte 27 Norte 0 -- -- 52
2020-12-02 14:00:00 7.1 14 Norte 24 Norte 0 -- -- 56
2020-12-02 13:00:00 6.8 6 Noroeste 15 Norte 0 -- -- 58
2020-12-02 12:00:00 6.5 7 Norte 17 Norte -- -- -- 63
2020-12-02 11:00:00 6 8 Norte 18 Norte 0 -- -- 66
2020-12-02 10:00:00 5.5 6 Norte 27 Norte 0 -- -- 61
2020-12-02 09:00:00 5.7 15 Norte 28 Norte 0 -- -- 61
2020-12-02 08:00:00 6.3 13 Norte 21 Norte 0 -- -- 74
2020-12-02 07:00:00 6.1 12 Noroeste 22 Noroeste 0 -- -- 79
2020-12-02 06:00:00 5.8 9 Noroeste 15 Noroeste 0 -- -- 80
2020-12-02 05:00:00 5.7 7 Noroeste 13 Noroeste 0 -- -- 78
2020-12-02 04:00:00 6.6 8 Noroeste 17 Noroeste 0 -- -- 75
2020-12-02 03:00:00 6.5 5 Noroeste 11 Noroeste 0 -- -- 75
2020-12-02 02:00:00 5.9 7 Oeste 10 Oeste 0 -- -- 76
2020-12-02 01:00:00 7.1 9 Noroeste 19 Norte 0 -- -- 72
2020-12-02 00:00:00 7 11 Noroeste 21 Norte 0 -- -- 69
2020-12-01 23:00:00 7.6 11 Norte 19 Norte 0 -- -- 63
2020-12-01 22:00:00 8.6 10 Norte 23 Norte 0 -- -- 57
2020-12-01 21:00:00 8.7 11 Norte 18 Norte 0 -- -- 54
2020-12-01 20:00:00 9.4 10 Norte 16 Norte 0 -- -- 50
2020-12-01 19:00:00 10.6 10 Norte 26 Norte 0 -- -- 46
2020-12-01 18:00:00 10.9 8 Norte 23 Noroeste 0 -- -- 48
2020-12-01 17:00:00 12.1 11 Norte 19 Norte 0 -- -- 44
2020-12-01 16:00:00 14.1 8 Norte 17 Noroeste 0 -- -- 39
2020-12-01 15:00:00 15 8 Noroeste 14 Oeste 0 -- -- 33
2020-12-01 14:00:00 14 8 Noroeste 14 Oeste 0 -- -- 34
2020-12-01 13:00:00 13.7 10 Noroeste 15 Noroeste 0 -- -- 39
2020-12-01 12:00:00 11.6 9 Noroeste 17 Noroeste 0 -- -- 49
2020-12-01 11:00:00 6.9 9 Noroeste 15 Noroeste 0 -- -- 79
2020-12-01 10:00:00 2.4 9 Noroeste 15 Norte 0 -- -- 93
2020-12-01 09:00:00 -0.5 7 Noroeste 12 Noroeste 0 -- -- 94
2020-12-01 08:00:00 -1 4 Norte 8 Norte 0 -- -- 93
2020-12-01 07:00:00 -0.3 5 Norte 12 Norte 0 -- -- 92
2020-12-01 06:00:00 0.4 6 Norte 13 Noroeste 0 -- -- 92
2020-12-01 05:00:00 1.1 8 Noroeste 17 Noroeste 0 -- -- 92
2020-12-01 04:00:00 0.7 8 Noroeste 13 Noroeste 0 -- -- 93
2020-12-01 03:00:00 1.6 10 Norte 14 Noroeste 0 -- -- 92
2020-12-01 02:00:00 1.9 9 Norte 14 Norte 0 -- -- 92
2020-12-01 01:00:00 1.8 8 Noroeste 14 Noroeste 0 -- -- 93
2020-12-01 00:00:00 2.3 8 Noroeste 14 Noroeste 0 -- -- 92
2020-11-30 23:00:00 2.6 7 Norte 14 Noroeste 0 -- -- 92
2020-11-30 22:00:00 3 8 Noroeste 12 Norte 0 -- -- 91
2020-11-30 21:00:00 3.6 6 Noroeste 14 Noroeste 0 -- -- 89
2020-11-30 20:00:00 4.8 6 Noroeste 9 Noroeste 0 -- -- 83
2020-11-30 19:00:00 7.1 2 Noroeste 6 Sur 0 -- -- 75
2020-11-30 18:00:00 11.1 3 Sudeste 5 Este 0 -- -- 66
2020-11-30 17:00:00 13.1 2 Este 8 Nordeste 0 -- -- 58
2020-11-30 16:00:00 12.8 4 Nordeste 10 Nordeste 0 -- -- 58
2020-11-30 15:00:00 12.5 3 Nordeste 11 Nordeste 0 -- -- 60
2020-11-30 14:00:00 12 4 Nordeste 10 Nordeste 0 -- -- 66
2020-11-30 13:00:00 11.3 2 Nordeste 6 Nordeste 0 -- -- 68
2020-11-30 12:00:00 9.9 3 Este 9 Noroeste 0 -- -- 79
2020-11-30 11:00:00 4.7 5 Noroeste 9 Norte 0 -- -- 97
2020-11-30 10:00:00 2 3 Noroeste 7 Noroeste 0 -- -- 96
2020-11-30 09:00:00 1.5 5 Norte 7 Noroeste 0 -- -- 96
2020-11-30 08:00:00 2.1 6 Norte 7 Norte 0 -- -- 96
2020-11-30 07:00:00 1.9 4 Norte 9 Norte 0 -- -- 95
2020-11-30 06:00:00 2.6 4 Norte 11 Norte 0 -- -- 95
2020-11-30 05:00:00 2.9 8 Norte 12 Noroeste 0 -- -- 96
2020-11-30 04:00:00 2.6 6 Noroeste 12 Norte 0 -- -- 95
2020-11-30 03:00:00 2.2 9 Noroeste 13 Norte 0 -- -- 95
2020-11-30 02:00:00 2.6 6 Noroeste 13 Norte 0 -- -- 94
2020-11-30 01:00:00 3.3 9 Norte 13 Norte 0 -- -- 95
2020-11-30 00:00:00 3.1 8 Norte 13 Norte 0 -- -- 94
2020-11-29 23:00:00 3.2 7 Noroeste 13 Norte 0 -- -- 94
2020-11-29 22:00:00 3.6 8 Norte 13 Norte 0 -- -- 93
2020-11-29 21:00:00 4 6 Norte 9 Norte 0 -- -- 91
2020-11-29 20:00:00 5.2 4 Nordeste 5 Nordeste 0 -- -- 88
2020-11-29 19:00:00 6.9 2 Este 5 Este 0 -- -- 84
2020-11-29 18:00:00 8.9 5 Este 10 Este 0 -- -- 77
2020-11-29 17:00:00 11 6 Este 15 Este 0 -- -- 71
2020-11-29 16:00:00 11.6 10 Este 18 Este 0 -- -- 66
2020-11-29 15:00:00 11.8 9 Este 25 Este 0 -- -- 64
2020-11-29 14:00:00 11.4 12 Nordeste 23 Nordeste 0 -- -- 70
2020-11-29 13:00:00 10.1 9 Nordeste 17 Este 0 -- -- 74
2020-11-29 12:00:00 9 11 Nordeste 17 Nordeste 0 -- -- 81
2020-11-29 11:00:00 8.2 9 Este 21 Este 0 -- -- 89
2020-11-29 10:00:00 6.3 5 Nordeste 9 Nordeste 0 -- -- 97
2020-11-29 09:00:00 3.6 4 Nordeste 9 Nordeste 0 -- -- 97
2020-11-29 08:00:00 4.3 4 Este 13 Nordeste 0 -- -- 97
2020-11-29 07:00:00 5.2 9 Nordeste 15 Nordeste 0 -- -- 98
2020-11-29 06:00:00 5.8 7 Nordeste 13 Nordeste 0 -- -- 98
2020-11-29 05:00:00 5.8 6 Nordeste 12 Nordeste 0 -- -- 98
2020-11-29 04:00:00 5.3 2 Nordeste 6 Este 0 -- -- 98
2020-11-29 03:00:00 4.9 2 Nordeste 5 Nordeste 0 -- -- 98
2020-11-29 02:00:00 5.2 0 Calma 12 Nordeste 0 -- -- 97
2020-11-29 01:00:00 5.5 8 Nordeste 13 Nordeste 0 -- -- 97
2020-11-29 00:00:00 5.7 4 Nordeste 9 Este 0 -- -- 96
2020-11-28 23:00:00 6 4 Sudeste 8 Este 0 -- -- 96
2020-11-28 22:00:00 6 3 Este 12 Sur 0 -- -- 95
2020-11-28 21:00:00 6 0 Calma 6 Sudeste 0 -- -- 94
2020-11-28 20:00:00 6.1 5 Sudeste 9 Sudeste 0 -- -- 92
2020-11-28 19:00:00 7.3 7 Sudeste 16 Sur 0 -- -- 89
2020-11-28 18:00:00 9.2 7 Sudeste 18 Este 0 -- -- 77
2020-11-28 17:00:00 10.7 11 Sudeste 16 Sudeste 0 -- -- 69
2020-11-28 16:00:00 12 5 Sudeste 12 Sudeste 0 -- -- 60
2020-11-28 15:00:00 11.5 9 Sur 19 Sudoeste 0 -- -- 64
2020-11-28 14:00:00 11.8 10 Sur 17 Sur 0 -- -- 67
2020-11-28 13:00:00 10.9 8 Sudeste 19 Este 0 -- -- 71
2020-11-28 12:00:00 10.4 5 Sur 12 Sudeste 0 -- -- 75
2020-11-28 11:00:00 8.9 4 Noroeste 9 Norte 0 -- -- 88
2020-11-28 10:00:00 5.6 5 Noroeste 8 Norte 0 -- -- 97
2020-11-28 09:00:00 2.4 7 Noroeste 11 Noroeste 0 -- -- 96
2020-11-28 08:00:00 1.8 7 Noroeste 10 Norte 0 -- -- 95
2020-11-28 07:00:00 2.5 8 Norte 10 Norte 0 -- -- 95
2020-11-28 06:00:00 3.2 8 Norte 9 Norte 0 -- -- 94
2020-11-28 05:00:00 4.3 4 Norte 10 Norte 0 -- -- 92
2020-11-28 04:00:00 4.3 7 Norte 9 Norte 0 -- -- 93
2020-11-28 03:00:00 5.3 3 Nordeste 8 Norte 0 -- -- 92
2020-11-28 02:00:00 6 3 Nordeste 6 Nordeste 0 -- -- 93
2020-11-28 01:00:00 5.1 3 Nordeste 12 Nordeste 0 -- -- 92
2020-11-28 00:00:00 4.2 8 Norte 10 Norte 0 -- -- 93
2020-11-27 23:00:00 4.7 8 Norte 10 Norte 0 -- -- 91
2020-11-27 22:00:00 5.4 7 Norte 12 Nordeste 0 -- -- 89
2020-11-27 21:00:00 6 8 Este 13 Nordeste 0 -- -- 88
2020-11-27 20:00:00 7.8 9 Nordeste 14 Nordeste 0 -- -- 83
2020-11-27 19:00:00 9 7 Nordeste 10 Nordeste 0 -- -- 79
2020-11-27 18:00:00 10 7 Nordeste 15 Este 0 -- -- 76
2020-11-27 17:00:00 11.8 12 Este 27 Este 0 -- -- 68
2020-11-27 16:00:00 12.7 16 Este 26 Este 0 -- -- 66
2020-11-27 15:00:00 11.8 16 Este 28 Este 0 -- -- 72
2020-11-27 14:00:00 11.4 14 Este 30 Este 0 -- -- 76
2020-11-27 13:00:00 11.6 17 Este 29 Este 0 -- -- 76
2020-11-27 12:00:00 11.2 14 Este 26 Este 0 -- -- 78
2020-11-27 11:00:00 10.3 13 Nordeste 21 Nordeste 0 -- -- 81
2020-11-27 10:00:00 8.4 8 Nordeste 15 Nordeste 0 -- -- 93
2020-11-27 09:00:00 5.8 8 Norte 12 Norte 0 -- -- 95
2020-11-27 08:00:00 5.4 8 Norte 12 Norte 0 -- -- 94
2020-11-27 07:00:00 6.1 7 Nordeste 17 Nordeste 0 -- -- 92
2020-11-27 06:00:00 7.2 9 Nordeste 14 Nordeste 0 -- -- 93
2020-11-27 05:00:00 7.5 9 Nordeste 17 Nordeste 0 -- -- 92
2020-11-27 04:00:00 7.6 11 Nordeste 22 Nordeste 0 -- -- 92
2020-11-27 03:00:00 7.6 10 Nordeste 18 Nordeste 0 -- -- 94
2020-11-27 02:00:00 7.5 8 Nordeste 14 Nordeste 0 -- -- 94
2020-11-27 01:00:00 7.9 9 Nordeste 13 Este 0 -- -- 93
2020-11-27 00:00:00 8.1 8 Este 24 Nordeste 0.8 -- -- 91
2020-11-26 23:00:00 8.5 16 Este 29 Este 0.2 -- -- 88
2020-11-26 22:00:00 8.6 18 Nordeste 26 Nordeste 0 -- -- 85
2020-11-26 21:00:00 9.3 17 Nordeste 24 Nordeste 0 -- -- 81
2020-11-26 20:00:00 8.7 10 Nordeste 16 Nordeste 0 -- -- 84
2020-11-26 19:00:00 8.6 6 Nordeste 14 Nordeste 0 -- -- 84
2020-11-26 18:00:00 9.3 10 Nordeste 15 Nordeste 0 -- -- 81
2020-11-26 17:00:00 9.5 8 Nordeste 15 Nordeste 0 -- -- 81
2020-11-26 16:00:00 9.8 13 Nordeste 20 Nordeste 0 -- -- 81
2020-11-26 15:00:00 9.7 15 Nordeste 21 Nordeste 0 -- -- 80
2020-11-26 14:00:00 9.5 12 Nordeste 26 Este 0 -- -- 80
2020-11-26 13:00:00 9.7 17 Este 33 Este 0 -- -- 78
2020-11-26 12:00:00 9.4 18 Este 35 Nordeste 0 -- -- 81
2020-11-26 11:00:00 9 19 Este 35 Este 0 -- -- 83
2020-11-26 10:00:00 7.8 20 Nordeste 30 Nordeste 0 -- -- 88
2020-11-26 09:00:00 7.4 18 Este 30 Nordeste 0 -- -- 90
2020-11-26 08:00:00 7.3 19 Este 28 Nordeste 0 -- -- 91
2020-11-26 07:00:00 7.4 18 Este 27 Nordeste 0 -- -- 92
2020-11-26 06:00:00 7 17 Este 27 Este 0.2 -- -- 93
2020-11-26 05:00:00 7 17 Este 22 Este 0 -- -- 93
2020-11-26 04:00:00 6.8 14 Este 23 Este 0 -- -- 93
2020-11-26 03:00:00 6.5 14 Este 20 Este 0 -- -- 94
2020-11-26 02:00:00 6.4 14 Este 22 Este 0.2 -- -- 93
2020-11-26 01:00:00 6.7 16 Nordeste 25 Nordeste 0 -- -- 92
2020-11-26 00:00:00 6.8 16 Este 22 Este 0 -- -- 92
2020-11-25 23:00:00 6.9 15 Nordeste 24 Nordeste 0.2 -- -- 93
2020-11-25 22:00:00 6.6 12 Nordeste 26 Nordeste 0 -- -- 94
2020-11-25 21:00:00 5.9 13 Nordeste 21 Nordeste 0 -- -- 96
2020-11-25 20:00:00 5.8 12 Nordeste 20 Nordeste 0 -- -- 97
2020-11-25 19:00:00 5.8 10 Nordeste 19 Nordeste 1.2 -- -- 97
2020-11-25 18:00:00 5.8 8 Nordeste 18 Nordeste 0.8 -- -- 97
2020-11-25 17:00:00 5.9 10 Nordeste 15 Nordeste 1.4 -- -- 97
2020-11-25 16:00:00 5.9 10 Nordeste 17 Este 2.4 -- -- 97
2020-11-25 15:00:00 6 7 Este 21 Este 1.8 -- -- 97
2020-11-25 14:00:00 6.1 10 Este 20 Este 2.2 -- -- 97
2020-11-25 13:00:00 5.9 15 Este 23 Este 0.8 -- -- 97
2020-11-25 12:00:00 5.9 12 Este 22 Este 1.6 -- -- 98
2020-11-25 11:00:00 5.2 12 Este 21 Este 1.8 -- -- 98
2020-11-25 10:00:00 5.1 13 Este 20 Este 0.8 -- -- 97
2020-11-25 09:00:00 5 10 Este 15 Nordeste 1.6 -- -- 97
2020-11-25 08:00:00 4.8 12 Este 18 Este 1.2 -- -- 97
2020-11-25 07:00:00 4.7 11 Este 17 Sudeste 0.6 -- -- 97
2020-11-25 06:00:00 4.6 8 Sudeste 17 Este 0 -- -- 97
2020-11-25 05:00:00 4.6 8 Este 13 Este 0 -- -- 96
2020-11-25 04:00:00 4.2 4 Este 11 Este 0 -- -- 96
2020-11-25 03:00:00 4.8 7 Sudeste 13 Sudeste 0 -- -- 96
2020-11-25 02:00:00 5.5 8 Sudeste 14 Sudeste 0 -- -- 96
2020-11-25 01:00:00 5 8 Este 10 Este 0 -- -- 96
2020-11-25 00:00:00 3.7 6 Este 9 Este 0 -- -- 96
2020-11-24 23:00:00 3 5 Nordeste 8 Este 0 -- -- 95
2020-11-24 22:00:00 3 6 Este 6 Este 0 -- -- 92
2020-11-24 21:00:00 4.7 7 Sudeste 11 Sudeste 0 -- -- 90
2020-11-24 20:00:00 5 5 Este 10 Este 0 -- -- 89
2020-11-24 19:00:00 6.5 4 Este 9 Este 0 -- -- 85
2020-11-24 18:00:00 8.6 5 Este 9 Este 0 -- -- 79
2020-11-24 17:00:00 9.9 5 Sudeste 13 Sur 0 -- -- 74
2020-11-24 16:00:00 10.6 8 Sur 16 Sur 0 -- -- 68
2020-11-24 15:00:00 10.8 7 Sur 12 Sudeste 0 -- -- 66
2020-11-24 14:00:00 10 5 Sur 12 Sur 0 -- -- 68
2020-11-24 13:00:00 9.1 5 Sudeste 9 Sudeste 0 -- -- 70
2020-11-24 12:00:00 7.4 2 Sudeste 6 Este 0 -- -- 80
2020-11-24 11:00:00 4.5 3 Este 6 Este 0 -- -- 90
2020-11-24 10:00:00 2.4 0 Calma 4 Norte 0 -- -- 96
2020-11-24 09:00:00 -0.6 0 Calma 6 Norte 0 -- -- 96
2020-11-24 08:00:00 -0.8 2 Noroeste 4 Noroeste 0 -- -- 95
2020-11-24 07:00:00 -0.5 0 Calma 6 Noroeste 0 -- -- 95
2020-11-24 06:00:00 -0.2 5 Noroeste 8 Noroeste 0 -- -- 94
2020-11-24 05:00:00 0.5 7 Norte 8 Norte 0 -- -- 94
2020-11-24 04:00:00 1.1 3 Oeste 8 Norte 0 -- -- 94
2020-11-24 03:00:00 1.5 6 Norte 8 Norte 0 -- -- 93
2020-11-24 02:00:00 1.7 7 Norte 9 Norte 0 -- -- 93
2020-11-24 01:00:00 1.8 6 Noroeste 9 Norte 0 -- -- 93
2020-11-24 00:00:00 2.4 6 Norte 9 Norte 0 -- -- 92
2020-11-23 23:00:00 2.6 7 Noroeste 8 Noroeste 0 -- -- 91
2020-11-23 22:00:00 3.6 7 Noroeste 8 Noroeste 0 -- -- 89
2020-11-23 21:00:00 4.5 7 Norte 8 Noroeste 0 -- -- 87
2020-11-23 20:00:00 5.8 3 Norte 4 Norte 0 -- -- 81
2020-11-23 19:00:00 7.1 2 Este 6 Este 0 -- -- 74
2020-11-23 18:00:00 11.2 3 Sudoeste -- -- 0 -- -- 60
2020-11-23 17:00:00 14 4 Sur 8 Sur 0 -- -- 54
2020-11-23 16:00:00 15.4 3 Sur 6 Sudoeste 0 -- -- 49
2020-11-23 15:00:00 14.6 0 Calma 4 Este 0 -- -- 51
2020-11-23 14:00:00 13.7 3 Sudeste 8 Sudeste 0 -- -- 54
2020-11-23 13:00:00 12.8 0 Calma 5 Sur 0 -- -- 58
2020-11-23 12:00:00 11.1 0 Calma 3 Sur 0 -- -- 67
2020-11-23 11:00:00 8.7 0 Calma 4 Nordeste 0 -- -- 82
2020-11-23 10:00:00 4.2 0 Calma 9 Norte 0 -- -- 96
2020-11-23 09:00:00 0.5 3 Norte 8 Noroeste 0 -- -- 95
2020-11-23 08:00:00 0.3 5 Norte 8 Noroeste 0 -- -- 95
2020-11-23 07:00:00 0.4 6 Norte 9 Noroeste 0 -- -- 95
2020-11-23 06:00:00 0.3 4 Norte 8 Noroeste 0 -- -- 94
2020-11-23 05:00:00 0.5 5 Noroeste 7 Norte 0 -- -- 94
2020-11-23 04:00:00 0.6 3 Noroeste 8 Noroeste 0 -- -- 93
2020-11-23 03:00:00 1.3 6 Noroeste 9 Norte 0 -- -- 92
2020-11-23 02:00:00 1.8 7 Noroeste 10 Noroeste 0 -- -- 92
2020-11-23 01:00:00 1.8 6 Noroeste 8 Noroeste 0 -- -- 91
2020-11-23 00:00:00 2.5 7 Norte 9 Noroeste 0 -- -- 88
2020-11-22 23:00:00 3.2 8 Norte 9 Norte 0 -- -- 85
2020-11-22 22:00:00 5.3 3 Nordeste 5 Nordeste 0 -- -- 80
2020-11-22 21:00:00 5.3 2 Nordeste 8 Norte 0 -- -- 81
2020-11-22 20:00:00 6.3 4 Nordeste 6 Nordeste 0 -- -- 73
2020-11-22 19:00:00 9.6 4 Sudeste 5 Sudeste 0 -- -- 61
2020-11-22 18:00:00 13.9 3 Sur 6 Sur 0 -- -- 48
2020-11-22 17:00:00 15.7 5 Sur 9 Sur 0 -- -- 42
2020-11-22 16:00:00 16.2 4 Sur 8 Sudeste 0 -- -- 39
2020-11-22 15:00:00 16 3 Sur 9 Sudoeste 0 -- -- 39
2020-11-22 14:00:00 14.4 4 Sur 10 Sudeste 0 -- -- 44
2020-11-22 13:00:00 13 4 Sur 8 Sur 0 -- -- 51
2020-11-22 12:00:00 11.1 4 Sur 8 Sudoeste 0 -- -- 58
2020-11-22 11:00:00 8.9 0 Calma 4 Sudeste 0 -- -- 61
2020-11-22 10:00:00 4.9 0 Calma 6 Norte 0 -- -- 91
2020-11-22 09:00:00 0.3 5 Norte 7 Norte 0 -- -- 95
2020-11-22 08:00:00 -0.4 5 Norte 7 Norte 0 -- -- 93
2020-11-22 07:00:00 -0.3 4 Noroeste 8 Noroeste 0 -- -- 92
2020-11-22 06:00:00 0.2 3 Noroeste 5 Norte 0 -- -- 92
2020-11-22 05:00:00 0.2 3 Norte 5 Noroeste 0 -- -- 91
2020-11-22 04:00:00 1 4 Norte 9 Noroeste 0 -- -- 90
2020-11-22 03:00:00 1.6 6 Noroeste 10 Norte 0 -- -- 88
2020-11-22 02:00:00 1.9 8 Noroeste 10 Noroeste 0 -- -- 88
2020-11-22 01:00:00 2.1 8 Noroeste 12 Noroeste 0 -- -- 88
2020-11-22 00:00:00 2.4 7 Norte 10 Noroeste 0 -- -- 87
2020-11-21 23:00:00 2.6 7 Norte 11 Norte 0 -- -- 85
2020-11-21 22:00:00 3.5 6 Norte 9 Norte 0 -- -- 82
2020-11-21 21:00:00 5.1 6 Norte 8 Norte 0 -- -- 77
2020-11-21 20:00:00 6.9 0 Calma 5 Sudeste 0 -- -- 67
2020-11-21 19:00:00 9.5 4 Sudeste 6 Sudeste 0 -- -- 57
2020-11-21 18:00:00 12.9 5 Sudeste 9 Este 0 -- -- 44
2020-11-21 17:00:00 16.1 5 Sudeste 11 Sudeste 0 -- -- 39
2020-11-21 16:00:00 18 4 Sudeste 9 Sudeste 0 -- -- 27
2020-11-21 15:00:00 17.5 5 Este 12 Este 0 -- -- 24
2020-11-21 14:00:00 17 4 Sudeste 13 Este 0 -- -- 30
2020-11-21 13:00:00 16.2 5 Oeste 10 Noroeste 0 -- -- 35
2020-11-21 12:00:00 13.8 6 Oeste 10 Oeste 0 -- -- 51
2020-11-21 11:00:00 10.1 8 Norte 17 Noroeste 0 -- -- 70
2020-11-21 10:00:00 6 8 Noroeste 18 Noroeste 0 -- -- 89
2020-11-21 09:00:00 2.6 8 Noroeste 16 Norte 0 -- -- 95
2020-11-21 08:00:00 2 8 Noroeste 14 Noroeste 0 -- -- 95
2020-11-21 07:00:00 2 9 Noroeste 14 Norte 0 -- -- 95
2020-11-21 06:00:00 1.9 7 Noroeste 14 Noroeste 0 -- -- 95
2020-11-21 05:00:00 1.8 7 Noroeste 11 Noroeste 0 -- -- 95
2020-11-21 04:00:00 1.8 6 Noroeste 8 Noroeste 0 -- -- 95
2020-11-21 03:00:00 2.1 6 Noroeste 9 Norte 0 -- -- 95
2020-11-21 02:00:00 1.9 6 Norte 9 Norte 0 -- -- 94
2020-11-21 01:00:00 2.4 3 Noroeste 5 Noroeste 0 -- -- 93
2020-11-21 00:00:00 2.9 3 Nordeste 8 Noroeste 0 -- -- 94
2020-11-20 23:00:00 3.2 0 Calma 12 Este 0 -- -- 93
2020-11-20 22:00:00 3.6 3 Norte 8 Noroeste 0 -- -- 91
2020-11-20 21:00:00 4.3 7 Norte 10 Norte 0 -- -- 89
2020-11-20 20:00:00 5.1 6 Norte 9 Norte 0 -- -- 86
2020-11-20 19:00:00 6.9 0 Calma 6 Sudeste 0 -- -- 77
2020-11-20 18:00:00 10.2 4 Sudeste 6 Sudeste 0 -- -- 64
2020-11-20 17:00:00 11.9 0 Calma 7 Este 0 -- -- 57
2020-11-20 16:00:00 11.8 3 Sudeste 13 Este 0 -- -- 57
2020-11-20 15:00:00 11.4 6 Este 13 Este 0 -- -- 63
2020-11-20 14:00:00 10.5 3 Este 13 Este 0 -- -- 69
2020-11-20 13:00:00 9.4 4 Este 13 Nordeste 0 -- -- 73
2020-11-20 12:00:00 8.7 0 Calma 0 Calma 0 -- -- 75
2020-11-20 11:00:00 7.3 0 Calma 0 Calma 0 -- -- 84
2020-11-20 10:00:00 6.7 0 Calma 5 Norte 0 -- -- 89
2020-11-20 09:00:00 6.2 2 Sudeste 5 Sudeste 0 -- -- 95
2020-11-20 08:00:00 6.1 3 Sudeste 7 Este 0 -- -- 93
2020-11-20 07:00:00 6.1 5 Este 8 Este 0 -- -- 92
2020-11-20 06:00:00 6.5 3 Este 6 Este 0 -- -- 91
2020-11-20 05:00:00 6.7 4 Sudeste 11 Este 0 -- -- 89
2020-11-20 04:00:00 7.1 6 Este 9 Este 0 -- -- 90
2020-11-20 03:00:00 7.3 3 Sudeste 6 Sudeste 0 -- -- 92
2020-11-20 02:00:00 7.4 2 Sur 3 Sur 0 -- -- 91
2020-11-20 01:00:00 7.6 0 Calma 9 Este 0 -- -- 90
2020-11-20 00:00:00 7.9 6 Este 14 Sudeste 0 -- -- 89
2020-11-19 23:00:00 8.3 10 Este 22 Este 0 -- -- 89
2020-11-19 22:00:00 8.8 13 Este 22 Este 0 -- -- 90
2020-11-19 21:00:00 8.3 7 Nordeste 12 Este 0 -- -- 86
2020-11-19 20:00:00 9.2 5 Nordeste 9 Nordeste 0 -- -- 81
2020-11-19 19:00:00 12 7 Nordeste 14 Norte 0 -- -- 73
2020-11-19 18:00:00 15.8 4 Sur 7 Sur 0 -- -- 65
2020-11-19 17:00:00 17.3 5 Sur 12 Sudoeste 0 -- -- 62
2020-11-19 16:00:00 17.7 5 Sudoeste 10 Sur 0 -- -- 61
2020-11-19 15:00:00 17.1 6 Sur 15 Sudoeste 0 -- -- 62
2020-11-19 14:00:00 16.8 8 Sudoeste 13 Sudoeste 0 -- -- 65
2020-11-19 13:00:00 16.3 5 Sudeste 8 Sudeste 0 -- -- 67
2020-11-19 12:00:00 15.3 4 Sudeste 9 Sudeste 0 -- -- 70
2020-11-19 11:00:00 13.6 5 Sudeste 8 Sudeste 0 -- -- 80
2020-11-19 10:00:00 9.7 0 Calma 8 Noroeste 0 -- -- 98
2020-11-19 09:00:00 5.1 4 Noroeste 11 Norte 0 -- -- 97
2020-11-19 08:00:00 4.7 7 Norte 9 Norte 0 -- -- 96
2020-11-19 07:00:00 5.6 4 Noroeste 13 Norte 0 -- -- 95
2020-11-19 06:00:00 5.7 8 Norte 15 Noroeste 0 -- -- 96
2020-11-19 05:00:00 4.8 6 Norte 12 Noroeste 0 -- -- 96
2020-11-19 04:00:00 4.9 6 Noroeste 13 Noroeste 0 -- -- 96
2020-11-19 03:00:00 5.6 10 Noroeste 12 Noroeste 0 -- -- 96
2020-11-19 02:00:00 5.9 8 Noroeste 14 Noroeste 0 -- -- 96
2020-11-19 01:00:00 6 9 Noroeste 12 Noroeste 0 -- -- 95
2020-11-19 00:00:00 6.7 8 Noroeste 11 Noroeste 0 -- -- 95
2020-11-18 23:00:00 7.4 6 Norte 14 Noroeste 0 -- -- 94
2020-11-18 22:00:00 7.6 9 Noroeste 13 Noroeste 0 -- -- 94
2020-11-18 21:00:00 8.3 4 Noroeste 9 Norte 0 -- -- 93
2020-11-18 20:00:00 8.5 8 Norte 9 Norte 0 -- -- 92
2020-11-18 19:00:00 9.6 4 Nordeste 8 Norte 0 -- -- 89
2020-11-18 18:00:00 11.6 4 Este 9 Este 0 -- -- 83
2020-11-18 17:00:00 14.1 5 Nordeste 12 Nordeste 0 -- -- 76
2020-11-18 16:00:00 14.6 6 Nordeste 10 Norte 0 -- -- 73
2020-11-18 15:00:00 13.8 5 Nordeste 9 Oeste 0 -- -- 77
2020-11-18 14:00:00 12.6 4 Oeste 8 Sudoeste 0 -- -- 83
2020-11-18 13:00:00 10.9 0 Calma 3 Nordeste 0 -- -- 92
2020-11-18 12:00:00 9.1 3 Este 8 Nordeste 0 -- -- 96
2020-11-18 11:00:00 7.1 3 Nordeste 4 Nordeste 0 -- -- 97
2020-11-18 10:00:00 5.7 2 Noroeste 5 Sudoeste 0 -- -- 97
2020-11-18 09:00:00 5.1 3 Sudoeste 8 Oeste 0 -- -- 97
2020-11-18 08:00:00 3.6 5 Norte 8 Norte 0 -- -- 98
2020-11-18 07:00:00 2 0 Calma 8 Noroeste 0 -- -- 96
2020-11-18 06:00:00 2.4 0 Calma 6 Noroeste 0 -- -- 96
2020-11-18 05:00:00 2.5 2 Noroeste 5 Noroeste 0 -- -- 96
2020-11-18 04:00:00 3.3 3 Norte 8 Norte 0 -- -- 95
2020-11-18 03:00:00 3.3 4 Noroeste 8 Norte 0 -- -- 95
2020-11-18 02:00:00 3.7 5 Norte 12 Noroeste 0 -- -- 94
2020-11-18 01:00:00 3.8 5 Norte 9 Noroeste 0 -- -- 93
2020-11-18 00:00:00 4.3 5 Norte 7 Norte 0 -- -- 92
2020-11-17 23:00:00 5.3 3 Nordeste 6 Norte 0 -- -- 91
2020-11-17 22:00:00 5.9 4 Nordeste 10 Nordeste 0 -- -- 89
2020-11-17 21:00:00 7.8 4 Nordeste 8 Sudeste 0 -- -- 86
2020-11-17 20:00:00 9.7 4 Este 8 Este 0 -- -- 79
2020-11-17 19:00:00 10.1 3 Nordeste 10 Sudeste 0 -- -- 73
2020-11-17 18:00:00 12.6 9 Sudeste 13 Sudeste 0 -- -- 64
2020-11-17 17:00:00 15.7 7 Sudeste 12 Sudeste 0 -- -- 54
2020-11-17 16:00:00 16.4 6 Sur 14 Sudeste 0 -- -- 49
2020-11-17 15:00:00 15.6 6 Sudeste 13 Sudeste 0 -- -- 57
2020-11-17 14:00:00 14.8 4 Sur 12 Sur 0 -- -- 63
2020-11-17 13:00:00 13.4 5 Sudeste 9 Sudeste 0 -- -- 72
2020-11-17 12:00:00 12.3 3 Sur 6 Sur 0 -- -- 79
2020-11-17 11:00:00 9.8 3 Sur 6 Sudeste 0 -- -- 90
2020-11-17 10:00:00 6.4 3 Norte 8 Noroeste 0 -- -- 98
2020-11-17 09:00:00 2.6 4 Norte 9 Norte 0 -- -- 98
2020-11-17 08:00:00 2 6 Norte 10 Noroeste 0 -- -- 97
2020-11-17 07:00:00 2.1 6 Noroeste 10 Noroeste 0 -- -- 97
2020-11-17 06:00:00 2.6 8 Norte 10 Noroeste 0 -- -- 97
2020-11-17 05:00:00 2.7 5 Noroeste 10 Norte 0 -- -- 96
2020-11-17 04:00:00 2.7 5 Noroeste 7 Norte 0 -- -- 96
2020-11-17 03:00:00 3.1 6 Norte 8 Norte 0 -- -- 96
2020-11-17 02:00:00 3.4 6 Norte 9 Noroeste 0 -- -- 96
2020-11-17 01:00:00 3.5 5 Norte 6 Noroeste 0 -- -- 95
2020-11-17 00:00:00 4 6 Norte 9 Norte 0 -- -- 94
2020-11-16 23:00:00 4.7 7 Norte 9 Norte 0 -- -- 94
2020-11-16 22:00:00 5.3 7 Norte 9 Norte 0 -- -- 93
2020-11-16 21:00:00 6.4 5 Nordeste 7 Nordeste 0 -- -- 90
2020-11-16 20:00:00 7.6 5 Nordeste 8 Este 0 -- -- 86
2020-11-16 19:00:00 8.9 5 Este 6 Este 0 -- -- 82
2020-11-16 18:00:00 11.2 4 Nordeste 5 Nordeste 0 -- -- 74
2020-11-16 17:00:00 12.9 2 Nordeste 5 Nordeste 0 -- -- 68
2020-11-16 16:00:00 13 3 Este 13 Nordeste 0 -- -- 66
2020-11-16 15:00:00 12.8 9 Nordeste 15 Nordeste 0 -- -- 71
2020-11-16 14:00:00 12.4 6 Este 14 Nordeste 0 -- -- 73
2020-11-16 13:00:00 12.1 8 Este 14 Nordeste 0 -- -- 76
2020-11-16 12:00:00 10.6 8 Este 14 Nordeste 0 -- -- 87
2020-11-16 11:00:00 9.3 6 Nordeste 11 Este 0 -- -- 94
2020-11-16 10:00:00 7.6 4 Norte 10 Norte 0 -- -- 93
2020-11-16 09:00:00 5.4 6 Norte 13 Norte 0 -- -- 94
2020-11-16 08:00:00 5.8 9 Noroeste 18 Noroeste 0 -- -- 92
2020-11-16 07:00:00 6.7 7 Oeste 13 Noroeste 0 -- -- 91
2020-11-16 06:00:00 7.7 4 Noroeste 27 Noroeste 0 -- -- 89
2020-11-16 05:00:00 8.5 17 Noroeste 27 Noroeste 0 -- -- 90
2020-11-16 04:00:00 8.4 9 Noroeste 21 Noroeste 0 -- -- 91
2020-11-16 03:00:00 8.6 10 Noroeste 22 Noroeste 0 -- -- 91
2020-11-16 02:00:00 9.2 10 Noroeste 24 Noroeste 0 -- -- 92
2020-11-16 01:00:00 9.2 13 Noroeste 21 Noroeste 0 -- -- 95
2020-11-16 00:00:00 9.2 10 Noroeste 14 Noroeste 0 -- -- 94
2020-11-15 23:00:00 9.9 5 Oeste 14 Oeste 0 -- -- 92
2020-11-15 22:00:00 10.5 9 Oeste 22 Noroeste 0 -- -- 92
2020-11-15 21:00:00 11.5 9 Noroeste 24 Oeste 0.2 -- -- 92
2020-11-15 20:00:00 12.4 6 Noroeste 11 Oeste 0 -- -- 94
2020-11-15 19:00:00 12.6 7 Sudoeste 16 Oeste 0 -- -- 93
2020-11-15 18:00:00 13.3 12 Oeste 21 Oeste 0.2 -- -- 92
2020-11-15 17:00:00 13.9 6 Oeste 11 Oeste 0.6 -- -- 91
2020-11-15 16:00:00 14.6 5 Noroeste 10 Noroeste 0 -- -- 88
2020-11-15 15:00:00 14.8 6 Noroeste 40 Sudoeste 0 -- -- 87
2020-11-15 14:00:00 15.1 29 Sudoeste 46 Sudoeste 0 -- -- 85
2020-11-15 13:00:00 15.8 31 Sudoeste 47 Sudoeste 0 -- -- 79
2020-11-15 12:00:00 15.2 26 Sur 40 Sur 0 -- -- 85
2020-11-15 11:00:00 13.8 17 Sur 44 Sur 0 -- -- 90
2020-11-15 10:00:00 13.1 27 Sur 40 Sudoeste 0 -- -- 93
2020-11-15 09:00:00 12.5 25 Sur 38 Sur 0 -- -- 95
2020-11-15 08:00:00 11.9 14 Sur 33 Sur 0 -- -- 97
2020-11-15 07:00:00 11.5 17 Sur 31 Sur 0 -- -- 97
2020-11-15 06:00:00 11.5 21 Sur 32 Sur 0 -- -- 97
2020-11-15 05:00:00 11.2 19 Sur 33 Sur 0 -- -- 97
2020-11-15 04:00:00 11.7 28 Sur 46 Sur 0 -- -- 98
2020-11-15 03:00:00 11.4 18 Sur 30 Sur 0 -- -- 98
2020-11-15 02:00:00 11.3 16 Sur 25 Sur 0 -- -- 98
2020-11-15 01:00:00 11.2 16 Sur 23 Sur 0 -- -- 97
2020-11-15 00:00:00 11.2 13 Sur 22 Sur 0 -- -- 98
2020-11-14 23:00:00 10.6 6 Sur 18 Sudeste 0 -- -- 98
2020-11-14 22:00:00 10.8 10 Sur 17 Sur 0 -- -- 98
2020-11-14 21:00:00 10.8 10 Sur 18 Sur 0 -- -- 97
2020-11-14 20:00:00 10.3 4 Sur 13 Sudeste 0 -- -- 97
2020-11-14 19:00:00 10 5 Este 14 Sudeste 0 -- -- 96
2020-11-14 18:00:00 10.3 10 Sudeste 15 Sudeste 0 -- -- 95
2020-11-14 17:00:00 10.7 11 Sudeste 18 Sudeste 0 -- -- 93
2020-11-14 16:00:00 11.1 9 Sudeste 18 Sur 0 -- -- 91
2020-11-14 15:00:00 10.7 6 Sudeste 14 Sur 0 -- -- 94
2020-11-14 14:00:00 9.8 10 Este 18 Este 0 -- -- 96
2020-11-14 13:00:00 8.9 7 Este 14 Este 0 -- -- 97
2020-11-14 12:00:00 8.7 9 Este 13 Este 0.2 -- -- 98
2020-11-14 11:00:00 7.8 5 Este 11 Este 0 -- -- 98
2020-11-14 10:00:00 7.3 6 Este 13 Este 0 -- -- 98
2020-11-14 09:00:00 7 4 Este 14 Este 0 -- -- 99
2020-11-14 08:00:00 6.5 7 Este 12 Este 0 -- -- 98
2020-11-14 07:00:00 6.6 6 Este 10 Este 0 -- -- 98
2020-11-14 06:00:00 6.4 5 Este 9 Nordeste 0 -- -- 98
2020-11-14 05:00:00 6 2 Nordeste 9 Nordeste 0 -- -- 98
2020-11-14 04:00:00 6.3 4 Nordeste 12 Nordeste 0 -- -- 98
2020-11-14 03:00:00 6.2 6 Este 10 Este 0 -- -- 98
2020-11-14 02:00:00 6.3 0 Calma 9 Este 0 -- -- 98
2020-11-14 01:00:00 6.6 5 Este 9 Este 0 -- -- 98
2020-11-14 00:00:00 6.4 2 Este 6 Este 0 -- -- 97
2020-11-13 23:00:00 6.3 0 Calma 5 Sudeste 0 -- -- 96
2020-11-13 22:00:00 6.8 2 Sudeste 4 Sudeste 0 -- -- 96
2020-11-13 21:00:00 5.6 0 Calma 5 Nordeste 0 -- -- 94
2020-11-13 20:00:00 7.2 2 Este 9 Sudeste 0 -- -- 92
2020-11-13 19:00:00 8.6 4 Sudeste 13 Sur 0 -- -- 88
2020-11-13 18:00:00 10.8 6 Sudeste 8 Sudeste 0 -- -- 83
2020-11-13 17:00:00 11.3 3 Sudoeste 16 Sudoeste 0 -- -- 79
2020-11-13 16:00:00 11.2 3 Sur 7 Sur 0 -- -- 80
2020-11-13 15:00:00 10.5 0 Calma 5 Oeste 0 -- -- 84
2020-11-13 14:00:00 10 0 Calma 12 Sudeste 0 -- -- 89
2020-11-13 13:00:00 8.8 3 Sudoeste 10 Sudeste 0 -- -- 94
2020-11-13 12:00:00 8.2 2 Sur 7 Sur 0 -- -- 96
2020-11-13 11:00:00 7.6 2 Este 6 Noroeste 0 -- -- 98
2020-11-13 10:00:00 6.5 0 Calma 2 Sur 0 -- -- 98
2020-11-13 09:00:00 4.9 0 Calma 6 Noroeste 0 -- -- 98
2020-11-13 08:00:00 5.6 5 Noroeste 8 Noroeste 0 -- -- 97
2020-11-13 07:00:00 6.1 2 Norte 6 Norte 0 -- -- 98
2020-11-13 06:00:00 5.7 4 Noroeste 8 Norte 0 -- -- 98
2020-11-13 05:00:00 4.9 4 Noroeste 7 Noroeste 0 -- -- 97
2020-11-13 04:00:00 4.8 0 Calma 6 Norte 0 -- -- 97
2020-11-13 03:00:00 5.9 5 Norte 8 Noroeste 0 -- -- 97
2020-11-13 02:00:00 5.8 4 Noroeste 7 Noroeste 0 -- -- 97
2020-11-13 01:00:00 6.2 3 Norte 5 Norte 0 -- -- 96
2020-11-13 00:00:00 6.6 2 Norte 5 Norte 0 -- -- 96
2020-11-12 23:00:00 6.5 3 Nordeste 6 Norte 0 -- -- 96
2020-11-12 22:00:00 6.6 6 Norte 8 Noroeste 0 -- -- 96
2020-11-12 21:00:00 7.3 3 Oeste 6 Noroeste 0 -- -- 95
2020-11-12 20:00:00 7.7 3 Sur 5 Sur 0 -- -- 93
2020-11-12 19:00:00 8.5 4 Sur 4 Sur 0 -- -- 91
2020-11-12 18:00:00 9.8 4 Sur 13 Sur 0 -- -- 86
2020-11-12 17:00:00 12 9 Sur 15 Sudeste 0 -- -- 79
2020-11-12 16:00:00 13.6 10 Sur 17 Sur 0 -- -- 71
2020-11-12 15:00:00 13.6 9 Sur 14 Sudeste 0 -- -- 71
2020-11-12 14:00:00 13 4 Sudeste 11 Sur 0 -- -- 73
2020-11-12 13:00:00 12.3 5 Sur 11 Sur 0 -- -- 75
2020-11-12 12:00:00 10.1 2 Sudeste 7 Sudeste 0 -- -- 84
2020-11-12 11:00:00 9.2 0 Calma 4 Este 0 -- -- 86
2020-11-12 10:00:00 8.4 0 Calma 5 Este 0 -- -- 93
2020-11-12 09:00:00 7.9 2 Nordeste 5 Norte 0 -- -- 95
2020-11-12 08:00:00 7.9 0 Calma 9 Este 0 -- -- 95
2020-11-12 07:00:00 7.9 0 Calma 6 Este 0 -- -- 96
2020-11-12 06:00:00 7.9 3 Nordeste 6 Nordeste 0 -- -- 97
2020-11-12 05:00:00 7.9 3 Este 9 Nordeste 0 -- -- 97
2020-11-12 04:00:00 7.8 5 Este 8 Nordeste 0 -- -- 97
2020-11-12 03:00:00 7.7 5 Nordeste 8 Este 0 -- -- 97
2020-11-12 02:00:00 7.7 3 Nordeste 5 Norte 0 -- -- 97
2020-11-12 01:00:00 7.9 2 Este 8 Este 0 -- -- 96
2020-11-12 00:00:00 8.1 4 Sudeste 8 Sudeste 0 -- -- 96
2020-11-11 23:00:00 8.1 4 Este 9 Este 0 -- -- 96
2020-11-11 22:00:00 7.8 4 Nordeste 10 Nordeste 0 -- -- 96
2020-11-11 21:00:00 7.6 7 Nordeste 14 Este 0 -- -- 94
2020-11-11 20:00:00 8.3 9 Este 17 Este 0 -- -- 93
2020-11-11 19:00:00 8.9 10 Este 14 Este 0 -- -- 90
2020-11-11 18:00:00 9.5 5 Este 18 Sur 0 -- -- 86
2020-11-11 17:00:00 10.7 11 Sur 23 Sur 0 -- -- 80
2020-11-11 16:00:00 10.8 16 Sur 27 Sur 0 -- -- 80
2020-11-11 15:00:00 10.4 10 Sur 26 Sur 0 -- -- 82
2020-11-11 14:00:00 10.3 17 Sur 33 Sur 0 -- -- 81
2020-11-11 13:00:00 8.9 12 Sudeste 19 Sur 0 -- -- 89
2020-11-11 12:00:00 8 10 Sur 13 Sur 0 -- -- 92
2020-11-11 11:00:00 7.3 8 Sudeste 14 Sudeste 0 -- -- 93
2020-11-11 10:00:00 6.9 6 Sudeste 11 Este 0 -- -- 95
2020-11-11 09:00:00 6.8 7 Este 10 Este 0 -- -- 95
2020-11-11 08:00:00 6.6 5 Este 6 Este 0 -- -- 94
2020-11-11 07:00:00 6.8 6 Este 10 Este 0 -- -- 94
2020-11-11 06:00:00 7.1 3 Este 5 Este 0 -- -- 94
2020-11-11 05:00:00 7.3 3 Este 6 Sudeste 0 -- -- 94
2020-11-11 04:00:00 7.3 3 Sudeste 6 Este 0 -- -- 93
2020-11-11 03:00:00 7.4 2 Este 6 Este 0 -- -- 93
2020-11-11 02:00:00 7.4 3 Este 8 Sudeste 0 -- -- 93
2020-11-11 01:00:00 7.3 4 Este 6 Este 0 -- -- 93
2020-11-11 00:00:00 7.4 3 Este 6 Este 0 -- -- 92
2020-11-10 23:00:00 7.7 3 Este 6 Este 0 -- -- 91
2020-11-10 22:00:00 8 2 Este 5 Este 0 -- -- 91
2020-11-10 21:00:00 8.1 0 Calma 5 Noroeste 0 -- -- 90
2020-11-10 20:00:00 8.1 0 Calma -- -- 0 -- -- 89
2020-11-10 19:00:00 8.6 0 Calma 4 Este 0 -- -- 90
2020-11-10 18:00:00 8.9 2 Sur 5 Sudoeste 0 -- -- 85
2020-11-10 17:00:00 9 3 Sudeste 8 Este 0 -- -- 88
2020-11-10 16:00:00 8.8 2 Sudeste 9 Este 0 -- -- 91
2020-11-10 15:00:00 8.5 4 Este 10 Este 0 -- -- 93
2020-11-10 14:00:00 8.4 6 Este 13 Este 0 -- -- 95
2020-11-10 13:00:00 7.8 4 Sudeste 12 Este 0 -- -- 96
2020-11-10 12:00:00 7.1 4 Este 17 Nordeste 0 -- -- 96
2020-11-10 11:00:00 8.1 10 Este 15 Este 0 -- -- 93
2020-11-10 10:00:00 6.2 0 Calma 7 Noroeste 0 -- -- 98
2020-11-10 09:00:00 3.3 5 Norte 10 Noroeste 0 -- -- 98
2020-11-10 08:00:00 2.3 7 Noroeste 13 Noroeste 0 -- -- 98
2020-11-10 07:00:00 2.5 8 Noroeste 10 Noroeste 0 -- -- 98
2020-11-10 06:00:00 2.8 5 Norte 11 Norte 0.2 -- -- 97
2020-11-10 05:00:00 3.4 8 Norte 12 Noroeste 0 -- -- 97
2020-11-10 04:00:00 3.6 7 Norte 11 Norte 0 -- -- 97
2020-11-10 03:00:00 4.1 5 Noroeste 9 Noroeste 0 -- -- 97
2020-11-10 02:00:00 4.6 6 Noroeste 12 Norte 0 -- -- 96
2020-11-10 01:00:00 5.8 6 Noroeste 12 Noroeste 0 -- -- 95
2020-11-10 00:00:00 7.4 10 Noroeste 15 Oeste 0 -- -- 96
2020-11-09 23:00:00 6.7 9 Noroeste 10 Noroeste 0 -- -- 96
2020-11-09 22:00:00 7.7 3 Nordeste 6 Nordeste 0 -- -- 96
2020-11-09 21:00:00 8.1 3 Noroeste 6 Oeste 0 -- -- 96
2020-11-09 20:00:00 8.3 0 Calma 6 Nordeste 0 -- -- 95
2020-11-09 19:00:00 8.3 4 Nordeste 5 Nordeste 0 -- -- 93
2020-11-09 18:00:00 10.1 0 Calma 10 Sur 0 -- -- 90
2020-11-09 17:00:00 11.8 8 Sur 12 Sudoeste 0 -- -- 87
2020-11-09 16:00:00 11 4 Noroeste 15 Sudoeste 1.4 -- -- 90
2020-11-09 15:00:00 11.6 6 Noroeste 22 Sudoeste 1.4 -- -- 85
2020-11-09 14:00:00 13.5 12 Sudoeste 22 Sudoeste 0 -- -- 72
2020-11-09 13:00:00 13.1 15 Sur 22 Sur 0 -- -- 80
2020-11-09 12:00:00 11.1 14 Sur 20 Sur 0 -- -- 97
2020-11-09 11:00:00 9.3 10 Sur 15 Sur 0 -- -- 99
2020-11-09 10:00:00 8.7 9 Sur 16 Sudoeste 0 -- -- 99
2020-11-09 09:00:00 7.9 5 Sudoeste 15 Sudeste 0 -- -- 99
2020-11-09 08:00:00 7.7 3 Sur 9 Sur 0 -- -- 98
2020-11-09 07:00:00 7.9 5 Sur 13 Sudeste 0 -- -- 98
2020-11-09 06:00:00 8 8 Sudeste 19 Sur 0 -- -- 98
2020-11-09 05:00:00 8.2 6 Sudeste 20 Sur 0 -- -- 98
2020-11-09 04:00:00 8.5 16 Sudeste 22 Sudeste 0 -- -- 98
2020-11-09 03:00:00 8.7 14 Sudeste 25 Sur 0 -- -- 98
2020-11-09 02:00:00 8.9 12 Sur 21 Sur 0 -- -- 98
2020-11-09 01:00:00 9.2 11 Sur 23 Sur 0 -- -- 97
2020-11-09 00:00:00 9 14 Sur 23 Sudoeste 0 -- -- 97
2020-11-08 23:00:00 9.2 9 Sudeste 18 Sudeste 0 -- -- 97
2020-11-08 22:00:00 9.5 10 Sur 21 Sudeste 0 -- -- 96
2020-11-08 21:00:00 9.5 15 Sudeste 24 Sudeste 0 -- -- 96
2020-11-08 20:00:00 9.6 13 Sudeste 22 Sur 0 -- -- 95
2020-11-08 19:00:00 10.2 11 Sudeste 19 Este 0 -- -- 95
2020-11-08 18:00:00 9.7 10 Sudeste 19 Sudeste 0 -- -- 94
2020-11-08 17:00:00 10.2 7 Este 19 Sudeste 0 -- -- 92
2020-11-08 16:00:00 10.4 12 Sudeste 22 Sur 0.6 -- -- 92
2020-11-08 15:00:00 10.8 15 Sur 24 Sur 0 -- -- 91
2020-11-08 14:00:00 10.7 13 Sur 25 Sur 0.2 -- -- 93
2020-11-08 13:00:00 10.7 19 Sur 28 Sudeste 0.2 -- -- 94
2020-11-08 12:00:00 10 12 Sur 29 Sudeste 2.6 -- -- 94
2020-11-08 11:00:00 10.3 16 Sudeste 29 Sudeste 0.4 -- -- 92
2020-11-08 10:00:00 9.7 19 Sudeste 27 Sudeste 0.2 -- -- 94
2020-11-08 09:00:00 9.2 17 Sudeste 24 Sudeste 0 -- -- 92
2020-11-08 08:00:00 9.6 12 Sudeste 30 Sudeste 0 -- -- 92
2020-11-08 07:00:00 9.6 20 Sur 30 Sudeste 0 -- -- 93
2020-11-08 06:00:00 9.5 16 Sudeste 26 Sudeste 0 -- -- 94
2020-11-08 05:00:00 9 14 Sudeste 21 Sudeste 0.2 -- -- 95
2020-11-08 04:00:00 9 14 Este 18 Este 0 -- -- 93
2020-11-08 03:00:00 9.2 11 Este 19 Sudeste 0 -- -- 92
2020-11-08 02:00:00 9 9 Este 17 Este 0 -- -- 92
2020-11-08 01:00:00 9.2 10 Este 14 Este 0 -- -- 92
2020-11-08 00:00:00 9.4 7 Sudeste 12 Sudeste 0 -- -- 91
2020-11-07 23:00:00 9 7 Este 17 Sudeste 0 -- -- 90
2020-11-07 22:00:00 10.1 6 Sudeste 14 Sudeste 0 -- -- 85
2020-11-07 21:00:00 10.5 8 Sudeste 21 Sudoeste 0 -- -- 82
2020-11-07 20:00:00 10.9 8 Sur 18 Sudeste 0 -- -- 81
2020-11-07 19:00:00 11.5 13 Sur 27 Sur 0 -- -- 79
2020-11-07 18:00:00 11.8 4 Sur 21 Sudoeste 0 -- -- 76
2020-11-07 17:00:00 12.2 18 Sudoeste 39 Sudoeste 0 -- -- 74
2020-11-07 16:00:00 13.3 30 Sudoeste 43 Sudoeste 0 -- -- 70
2020-11-07 15:00:00 14.2 27 Sudoeste 39 Sudoeste 0 -- -- 65
2020-11-07 14:00:00 13.3 21 Sur 31 Sudoeste 0 -- -- 71
2020-11-07 13:00:00 13.6 21 Sur 32 Sudoeste 0 -- -- 69
2020-11-07 12:00:00 12.8 15 Sudoeste 30 Sur 0 -- -- 82
2020-11-07 11:00:00 11.2 18 Sudoeste 29 Sudoeste 0 -- -- 92
2020-11-07 10:00:00 10.1 13 Sur 19 Sur 0 -- -- 97
2020-11-07 09:00:00 9.5 13 Sur 19 Sur 0 -- -- 97
2020-11-07 08:00:00 9.6 8 Sudeste 12 Sudeste 0 -- -- 97
2020-11-07 07:00:00 9.9 4 Este 9 Sudeste 0 -- -- 97
2020-11-07 06:00:00 10 4 Este 12 Este 0.2 -- -- 97
2020-11-07 05:00:00 10 5 Este 13 Este 0 -- -- 97
2020-11-07 04:00:00 10.1 10 Este 21 Este 0.6 -- -- 96
2020-11-07 03:00:00 10.2 12 Este 22 Este 2.4 -- -- 96
2020-11-07 02:00:00 10.4 9 Este 19 Sudeste 2.6 -- -- 96
2020-11-07 01:00:00 10.4 11 Este 15 Este 0.6 -- -- 95
2020-11-07 00:00:00 10.5 11 Este 18 Este 0.6 -- -- 95
2020-11-06 23:00:00 10.7 6 Sudeste 31 Sudeste 1 -- -- 93
2020-11-06 22:00:00 11.2 15 Sudeste 31 Este 0.8 -- -- 90
2020-11-06 21:00:00 12.4 19 Sudeste 40 Sudeste 0.4 -- -- 85
2020-11-06 20:00:00 13.3 22 Este 46 Este 0 -- -- 87
2020-11-06 19:00:00 13.4 30 Este 47 Este 0.4 -- -- 88
2020-11-06 18:00:00 13.1 18 Este 31 Este 0 -- -- 86
2020-11-06 17:00:00 13.2 17 Este 33 Este 0 -- -- 85
2020-11-06 16:00:00 13.2 19 Este 36 Este 0 -- -- 85
2020-11-06 15:00:00 12.5 26 Este 37 Este 0.4 -- -- 88
2020-11-06 14:00:00 12.4 18 Este 34 Nordeste 0.2 -- -- 91
2020-11-06 13:00:00 12.5 19 Este 32 Nordeste 0 -- -- 86
2020-11-06 12:00:00 12 14 Este 25 Este 0 -- -- 89
2020-11-06 11:00:00 10.6 14 Nordeste 28 Nordeste 0.2 -- -- 92
2020-11-06 10:00:00 9.7 22 Este 30 Este 0 -- -- 94
2020-11-06 09:00:00 8.9 16 Nordeste 22 Nordeste 0 -- -- 95
2020-11-06 08:00:00 8.6 14 Este 19 Este 0 -- -- 95
2020-11-06 07:00:00 9 10 Nordeste 17 Este 0 -- -- 95
2020-11-06 06:00:00 8.7 13 Este 28 Sudeste 0.4 -- -- 95
2020-11-06 05:00:00 8.9 15 Este 26 Este 0.2 -- -- 95
2020-11-06 04:00:00 8.5 18 Este 30 Este 0 -- -- 95
2020-11-06 03:00:00 8.7 21 Este 31 Este 0 -- -- 94
2020-11-06 02:00:00 9.2 19 Este 28 Este 0 -- -- 94
2020-11-06 01:00:00 9.3 17 Este 33 Este 0.2 -- -- 94
2020-11-06 00:00:00 9.4 20 Este 44 Este 0.4 -- -- 94
2020-11-05 23:00:00 9.4 22 Este 37 Este 2.2 -- -- 93
2020-11-05 22:00:00 9.8 21 Este 34 Este 0.4 -- -- 90
2020-11-05 21:00:00 10.2 18 Este 38 Este 0.2 -- -- 88
2020-11-05 20:00:00 10.5 21 Este 39 Este 0 -- -- 83
2020-11-05 19:00:00 11.1 22 Este 36 Este 0 -- -- 79
2020-11-05 18:00:00 11.4 19 Este 42 Este 0 -- -- 77
2020-11-05 17:00:00 12.1 22 Este 39 Este 0 -- -- 73
2020-11-05 16:00:00 11.9 20 Este 45 Este 0 -- -- 72
2020-11-05 15:00:00 11.9 24 Este 51 Este 0 -- -- 70
2020-11-05 14:00:00 12.1 26 Este 45 Este 0 -- -- 69
2020-11-05 13:00:00 11.8 24 Este 49 Este 0 -- -- 70
2020-11-05 12:00:00 10.9 25 Este 48 Este 0 -- -- 73
2020-11-05 11:00:00 9.9 30 Este 44 Este 0 -- -- 77
2020-11-05 10:00:00 8.4 31 Este 47 Nordeste 0 -- -- 81
2020-11-05 09:00:00 6.6 30 Nordeste 41 Este 0 -- -- 87
2020-11-05 08:00:00 6.4 28 Nordeste 41 Este 0 -- -- 85
2020-11-05 07:00:00 6.7 26 Este 39 Este 0 -- -- 83
2020-11-05 06:00:00 7.1 26 Este 39 Este 0 -- -- 81
2020-11-05 05:00:00 7.3 24 Nordeste 39 Nordeste 0 -- -- 80
2020-11-05 04:00:00 7 30 Nordeste 42 Nordeste 0 -- -- 79
2020-11-05 03:00:00 6.8 28 Nordeste 44 Este 0 -- -- 77
2020-11-05 02:00:00 7.1 28 Nordeste 39 Este 0 -- -- 74
2020-11-05 01:00:00 6.6 22 Nordeste 33 Nordeste 0.2 -- -- 73
2020-11-05 00:00:00 5.7 18 Nordeste 30 Nordeste 0 -- -- 77